Clifton, Kansas
Current Conditions -  °F | °C
As of 3:55 PM on Friday 28 Nov 2014 (Local Time) from KCNK Reporting Station
Clear Clear  
Wind Chill: 63°   Ceiling: Unl
Heat Index: 63°   Visibility: 10mi
Dew Point: 33°   Wind: 6mph
Humidity: 33%   Direction: 180°S
Pressure: 29.72"   Gusts: NA
Location:  39.57°N, 97.28°W
Report Text: KCNK 282155Z AUTO 18005KT 10SM CLR 17/01 A2972 RMK AO2 SLP062 T01720006
Loading
Personal Weather Stations






























Interactive Weather Map New forecast layout! Learn more

10-Day Weather Forecast

Advertisements
Track Severe Weather on mobile